sensor_id;sensor_type;location;lat;lon;timestamp;P1;durP1;ratioP1;P2;durP2;ratioP2
4756;SDS011;2392;52.578;13.426;2024-02-26T00:00:36;28.40;;;12.53;;
4756;SDS011;2392;52.578;13.426;2024-02-26T00:03:04;28.40;;;12.47;;
4756;SDS011;2392;52.578;13.426;2024-02-26T00:05:30;32.20;;;14.60;;
4756;SDS011;2392;52.578;13.426;2024-02-26T00:07:57;29.10;;;12.70;;
4756;SDS011;2392;52.578;13.426;2024-02-26T00:10:24;29.23;;;13.67;;
4756;SDS011;2392;52.578;13.426;2024-02-26T00:12:52;30.40;;;13.97;;
4756;SDS011;2392;52.578;13.426;2024-02-26T00:15:19;27.67;;;12.40;;
4756;SDS011;2392;52.578;13.426;2024-02-26T00:17:45;29.60;;;12.90;;
4756;SDS011;2392;52.578;13.426;2024-02-26T00:20:12;30.53;;;12.10;;
4756;SDS011;2392;52.578;13.426;2024-02-26T00:22:39;24.40;;;10.83;;
4756;SDS011;2392;52.578;13.426;2024-02-26T00:25:06;30.90;;;13.37;;
4756;SDS011;2392;52.578;13.426;2024-02-26T00:27:33;27.40;;;11.60;;
4756;SDS011;2392;52.578;13.426;2024-02-26T00:30:00;29.50;;;13.17;;
4756;SDS011;2392;52.578;13.426;2024-02-26T00:32:27;31.07;;;14.07;;
4756;SDS011;2392;52.578;13.426;2024-02-26T00:34:54;33.13;;;13.47;;
4756;SDS011;2392;52.578;13.426;2024-02-26T00:37:21;31.73;;;12.87;;
4756;SDS011;2392;52.578;13.426;2024-02-26T00:39:47;29.90;;;12.30;;
4756;SDS011;2392;52.578;13.426;2024-02-26T00:42:14;31.67;;;12.40;;
4756;SDS011;2392;52.578;13.426;2024-02-26T00:44:41;26.03;;;11.00;;
4756;SDS011;2392;52.578;13.426;2024-02-26T00:47:09;28.07;;;12.60;;
4756;SDS011;2392;52.578;13.426;2024-02-26T00:49:35;27.53;;;12.27;;
4756;SDS011;2392;52.578;13.426;2024-02-26T00:52:03;29.40;;;11.93;;
4756;SDS011;2392;52.578;13.426;2024-02-26T00:54:30;27.23;;;12.00;;
4756;SDS011;2392;52.578;13.426;2024-02-26T00:56:56;28.20;;;11.73;;
4756;SDS011;2392;52.578;13.426;2024-02-26T00:59:23;28.80;;;12.70;;
4756;SDS011;2392;52.578;13.426;2024-02-26T01:01:50;28.40;;;11.20;;
4756;SDS011;2392;52.578;13.426;2024-02-26T01:04:18;27.60;;;11.63;;
4756;SDS011;2392;52.578;13.426;2024-02-26T01:06:44;25.73;;;11.40;;
4756;SDS011;2392;52.578;13.426;2024-02-26T01:09:11;33.43;;;11.70;;
4756;SDS011;2392;52.578;13.426;2024-02-26T01:11:38;24.63;;;10.63;;
4756;SDS011;2392;52.578;13.426;2024-02-26T01:14:04;26.17;;;10.93;;
4756;SDS011;2392;52.578;13.426;2024-02-26T01:16:31;25.27;;;11.07;;
4756;SDS011;2392;52.578;13.426;2024-02-26T01:18:58;25.70;;;10.23;;
4756;SDS011;2392;52.578;13.426;2024-02-26T01:21:26;27.10;;;11.00;;
4756;SDS011;2392;52.578;13.426;2024-02-26T01:23:54;24.30;;;9.53;;
4756;SDS011;2392;52.578;13.426;2024-02-26T01:26:20;25.90;;;10.63;;
4756;SDS011;2392;52.578;13.426;2024-02-26T01:28:47;26.73;;;11.80;;
4756;SDS011;2392;52.578;13.426;2024-02-26T01:31:14;27.77;;;11.30;;
4756;SDS011;2392;52.578;13.426;2024-02-26T01:33:41;29.17;;;11.13;;
4756;SDS011;2392;52.578;13.426;2024-02-26T01:36:07;30.17;;;11.00;;
4756;SDS011;2392;52.578;13.426;2024-02-26T01:38:35;26.87;;;10.70;;
4756;SDS011;2392;52.578;13.426;2024-02-26T01:41:02;24.33;;;10.23;;
4756;SDS011;2392;52.578;13.426;2024-02-26T01:43:29;24.57;;;10.17;;
4756;SDS011;2392;52.578;13.426;2024-02-26T01:45:56;26.17;;;10.67;;
4756;SDS011;2392;52.578;13.426;2024-02-26T01:48:22;29.90;;;12.20;;
4756;SDS011;2392;52.578;13.426;2024-02-26T01:50:49;24.97;;;10.63;;
4756;SDS011;2392;52.578;13.426;2024-02-26T01:53:16;26.07;;;11.10;;
4756;SDS011;2392;52.578;13.426;2024-02-26T01:55:46;26.17;;;11.00;;
4756;SDS011;2392;52.578;13.426;2024-02-26T01:58:13;27.57;;;11.33;;
4756;SDS011;2392;52.578;13.426;2024-02-26T02:00:40;22.20;;;9.50;;
4756;SDS011;2392;52.578;13.426;2024-02-26T02:03:07;22.47;;;9.20;;
4756;SDS011;2392;52.578;13.426;2024-02-26T02:05:34;22.23;;;8.73;;
4756;SDS011;2392;52.578;13.426;2024-02-26T02:08:06;23.10;;;9.80;;
4756;SDS011;2392;52.578;13.426;2024-02-26T02:10:33;25.10;;;9.80;;
4756;SDS011;2392;52.578;13.426;2024-02-26T02:13:01;25.43;;;10.10;;
4756;SDS011;2392;52.578;13.426;2024-02-26T02:15:28;28.27;;;12.70;;
4756;SDS011;2392;52.578;13.426;2024-02-26T02:17:55;28.67;;;11.03;;
4756;SDS011;2392;52.578;13.426;2024-02-26T02:20:26;27.40;;;10.77;;
4756;SDS011;2392;52.578;13.426;2024-02-26T02:22:53;22.67;;;9.20;;
4756;SDS011;2392;52.578;13.426;2024-02-26T02:25:19;24.37;;;10.30;;
4756;SDS011;2392;52.578;13.426;2024-02-26T02:27:46;30.90;;;10.10;;
4756;SDS011;2392;52.578;13.426;2024-02-26T02:30:13;23.67;;;9.90;;
4756;SDS011;2392;52.578;13.426;2024-02-26T02:32:40;24.37;;;9.37;;
4756;SDS011;2392;52.578;13.426;2024-02-26T02:35:07;21.27;;;8.30;;
4756;SDS011;2392;52.578;13.426;2024-02-26T02:37:36;22.80;;;8.63;;
4756;SDS011;2392;52.578;13.426;2024-02-26T02:40:03;21.10;;;7.97;;
4756;SDS011;2392;52.578;13.426;2024-02-26T02:42:31;22.57;;;8.30;;
4756;SDS011;2392;52.578;13.426;2024-02-26T02:44:57;22.63;;;7.90;;
4756;SDS011;2392;52.578;13.426;2024-02-26T02:47:24;22.80;;;9.70;;
4756;SDS011;2392;52.578;13.426;2024-02-26T02:49:51;25.70;;;10.67;;
4756;SDS011;2392;52.578;13.426;2024-02-26T02:52:17;23.47;;;10.27;;
4756;SDS011;2392;52.578;13.426;2024-02-26T02:54:45;35.73;;;10.53;;
4756;SDS011;2392;52.578;13.426;2024-02-26T02:57:12;24.90;;;10.60;;
4756;SDS011;2392;52.578;13.426;2024-02-26T02:59:39;27.10;;;10.10;;
4756;SDS011;2392;52.578;13.426;2024-02-26T03:02:05;24.37;;;9.80;;
4756;SDS011;2392;52.578;13.426;2024-02-26T03:04:32;29.70;;;10.50;;
4756;SDS011;2392;52.578;13.426;2024-02-26T03:06:59;23.87;;;9.97;;
4756;SDS011;2392;52.578;13.426;2024-02-26T03:09:26;24.10;;;9.73;;
4756;SDS011;2392;52.578;13.426;2024-02-26T03:11:54;26.03;;;9.77;;
4756;SDS011;2392;52.578;13.426;2024-02-26T03:14:20;23.80;;;10.30;;
4756;SDS011;2392;52.578;13.426;2024-02-26T03:16:47;24.40;;;9.30;;
4756;SDS011;2392;52.578;13.426;2024-02-26T03:19:14;25.40;;;9.63;;
4756;SDS011;2392;52.578;13.426;2024-02-26T03:21:42;23.30;;;8.90;;
4756;SDS011;2392;52.578;13.426;2024-02-26T03:24:08;22.47;;;9.17;;
4756;SDS011;2392;52.578;13.426;2024-02-26T03:26:35;22.90;;;8.87;;
4756;SDS011;2392;52.578;13.426;2024-02-26T03:29:03;22.50;;;8.90;;
4756;SDS011;2392;52.578;13.426;2024-02-26T03:31:30;27.13;;;9.13;;
4756;SDS011;2392;52.578;13.426;2024-02-26T03:33:57;23.57;;;8.67;;
4756;SDS011;2392;52.578;13.426;2024-02-26T03:36:24;22.30;;;8.30;;
4756;SDS011;2392;52.578;13.426;2024-02-26T03:38:51;23.50;;;9.07;;
4756;SDS011;2392;52.578;13.426;2024-02-26T03:41:18;22.87;;;9.13;;
4756;SDS011;2392;52.578;13.426;2024-02-26T03:43:45;23.70;;;9.37;;
4756;SDS011;2392;52.578;13.426;2024-02-26T03:46:13;22.40;;;8.73;;
4756;SDS011;2392;52.578;13.426;2024-02-26T03:48:40;22.93;;;8.77;;
4756;SDS011;2392;52.578;13.426;2024-02-26T03:51:08;24.93;;;9.60;;
4756;SDS011;2392;52.578;13.426;2024-02-26T03:53:35;26.93;;;10.23;;
4756;SDS011;2392;52.578;13.426;2024-02-26T03:56:02;26.90;;;10.47;;
4756;SDS011;2392;52.578;13.426;2024-02-26T03:58:30;24.83;;;9.60;;
4756;SDS011;2392;52.578;13.426;2024-02-26T04:00:56;22.87;;;8.30;;
4756;SDS011;2392;52.578;13.426;2024-02-26T04:03:24;23.43;;;8.03;;
4756;SDS011;2392;52.578;13.426;2024-02-26T04:05:51;22.30;;;8.07;;
4756;SDS011;2392;52.578;13.426;2024-02-26T04:08:18;23.27;;;8.20;;
4756;SDS011;2392;52.578;13.426;2024-02-26T04:10:45;23.23;;;9.10;;
4756;SDS011;2392;52.578;13.426;2024-02-26T04:13:12;21.57;;;7.70;;
4756;SDS011;2392;52.578;13.426;2024-02-26T04:15:38;22.03;;;7.97;;
4756;SDS011;2392;52.578;13.426;2024-02-26T04:18:05;21.40;;;7.90;;
4756;SDS011;2392;52.578;13.426;2024-02-26T04:20:33;22.93;;;9.00;;
4756;SDS011;2392;52.578;13.426;2024-02-26T04:22:59;21.70;;;8.33;;
4756;SDS011;2392;52.578;13.426;2024-02-26T04:25:26;22.23;;;8.07;;
4756;SDS011;2392;52.578;13.426;2024-02-26T04:27:53;24.80;;;8.43;;
4756;SDS011;2392;52.578;13.426;2024-02-26T04:30:20;22.30;;;8.27;;
4756;SDS011;2392;52.578;13.426;2024-02-26T04:32:47;23.93;;;9.10;;
4756;SDS011;2392;52.578;13.426;2024-02-26T04:35:13;25.77;;;9.50;;
4756;SDS011;2392;52.578;13.426;2024-02-26T04:37:41;22.50;;;8.17;;
4756;SDS011;2392;52.578;13.426;2024-02-26T04:40:08;21.97;;;8.40;;
4756;SDS011;2392;52.578;13.426;2024-02-26T04:42:35;26.70;;;8.30;;
4756;SDS011;2392;52.578;13.426;2024-02-26T04:45:02;22.40;;;8.30;;
4756;SDS011;2392;52.578;13.426;2024-02-26T04:47:29;24.20;;;8.90;;
4756;SDS011;2392;52.578;13.426;2024-02-26T04:49:56;26.60;;;9.20;;
4756;SDS011;2392;52.578;13.426;2024-02-26T04:52:25;28.27;;;8.63;;
4756;SDS011;2392;52.578;13.426;2024-02-26T04:54:56;25.40;;;9.57;;
4756;SDS011;2392;52.578;13.426;2024-02-26T04:57:25;27.40;;;9.93;;
4756;SDS011;2392;52.578;13.426;2024-02-26T04:59:51;24.53;;;9.43;;
4756;SDS011;2392;52.578;13.426;2024-02-26T05:02:18;29.67;;;10.73;;
4756;SDS011;2392;52.578;13.426;2024-02-26T05:04:45;28.73;;;9.70;;
4756;SDS011;2392;52.578;13.426;2024-02-26T05:07:12;25.73;;;9.73;;
4756;SDS011;2392;52.578;13.426;2024-02-26T05:09:39;22.80;;;9.67;;
4756;SDS011;2392;52.578;13.426;2024-02-26T05:12:11;24.30;;;9.40;;
4756;SDS011;2392;52.578;13.426;2024-02-26T05:14:38;30.43;;;10.40;;
4756;SDS011;2392;52.578;13.426;2024-02-26T05:17:05;26.90;;;10.50;;
4756;SDS011;2392;52.578;13.426;2024-02-26T05:19:32;26.23;;;9.53;;
4756;SDS011;2392;52.578;13.426;2024-02-26T05:21:59;26.10;;;11.90;;
4756;SDS011;2392;52.578;13.426;2024-02-26T05:24:25;27.13;;;9.80;;
4756;SDS011;2392;52.578;13.426;2024-02-26T05:26:53;26.43;;;10.40;;
4756;SDS011;2392;52.578;13.426;2024-02-26T05:29:21;25.47;;;11.20;;
4756;SDS011;2392;52.578;13.426;2024-02-26T05:31:48;25.03;;;9.57;;
4756;SDS011;2392;52.578;13.426;2024-02-26T05:34:15;29.40;;;10.70;;
4756;SDS011;2392;52.578;13.426;2024-02-26T05:36:45;26.63;;;10.30;;
4756;SDS011;2392;52.578;13.426;2024-02-26T05:39:12;24.80;;;10.30;;
4756;SDS011;2392;52.578;13.426;2024-02-26T05:41:38;24.93;;;10.20;;
4756;SDS011;2392;52.578;13.426;2024-02-26T05:44:07;24.43;;;10.10;;
4756;SDS011;2392;52.578;13.426;2024-02-26T05:46:36;24.70;;;9.80;;
4756;SDS011;2392;52.578;13.426;2024-02-26T05:49:03;27.53;;;10.70;;
4756;SDS011;2392;52.578;13.426;2024-02-26T05:51:30;25.30;;;10.53;;
4756;SDS011;2392;52.578;13.426;2024-02-26T05:53:57;24.87;;;10.30;;
4756;SDS011;2392;52.578;13.426;2024-02-26T05:56:23;24.63;;;10.23;;
4756;SDS011;2392;52.578;13.426;2024-02-26T05:58:53;25.43;;;10.23;;
4756;SDS011;2392;52.578;13.426;2024-02-26T06:01:20;25.93;;;10.63;;
4756;SDS011;2392;52.578;13.426;2024-02-26T06:03:51;26.47;;;10.93;;
4756;SDS011;2392;52.578;13.426;2024-02-26T06:06:17;28.03;;;10.60;;
4756;SDS011;2392;52.578;13.426;2024-02-26T06:08:44;26.30;;;9.97;;
4756;SDS011;2392;52.578;13.426;2024-02-26T06:11:11;27.10;;;10.90;;
4756;SDS011;2392;52.578;13.426;2024-02-26T06:13:37;25.10;;;10.57;;
4756;SDS011;2392;52.578;13.426;2024-02-26T06:16:05;24.00;;;10.30;;
4756;SDS011;2392;52.578;13.426;2024-02-26T06:18:32;23.50;;;10.10;;
4756;SDS011;2392;52.578;13.426;2024-02-26T06:21:00;25.43;;;10.43;;
4756;SDS011;2392;52.578;13.426;2024-02-26T06:23:27;28.20;;;11.37;;
4756;SDS011;2392;52.578;13.426;2024-02-26T06:25:54;29.30;;;11.60;;
4756;SDS011;2392;52.578;13.426;2024-02-26T06:28:21;29.87;;;10.70;;
4756;SDS011;2392;52.578;13.426;2024-02-26T06:30:48;25.47;;;11.07;;
4756;SDS011;2392;52.578;13.426;2024-02-26T06:33:15;31.07;;;12.57;;
4756;SDS011;2392;52.578;13.426;2024-02-26T06:35:42;25.87;;;11.20;;
4756;SDS011;2392;52.578;13.426;2024-02-26T06:38:10;27.80;;;11.93;;
4756;SDS011;2392;52.578;13.426;2024-02-26T06:40:38;30.67;;;11.20;;
4756;SDS011;2392;52.578;13.426;2024-02-26T06:43:05;28.13;;;10.70;;
4756;SDS011;2392;52.578;13.426;2024-02-26T06:45:32;27.60;;;10.63;;
4756;SDS011;2392;52.578;13.426;2024-02-26T06:47:58;25.60;;;11.47;;
4756;SDS011;2392;52.578;13.426;2024-02-26T06:50:26;31.47;;;13.80;;
4756;SDS011;2392;52.578;13.426;2024-02-26T06:52:52;28.37;;;12.63;;
4756;SDS011;2392;52.578;13.426;2024-02-26T06:55:21;30.00;;;12.00;;
4756;SDS011;2392;52.578;13.426;2024-02-26T06:57:47;33.20;;;12.10;;
4756;SDS011;2392;52.578;13.426;2024-02-26T07:00:15;30.20;;;12.93;;
4756;SDS011;2392;52.578;13.426;2024-02-26T07:02:43;30.60;;;10.97;;
4756;SDS011;2392;52.578;13.426;2024-02-26T07:05:10;24.43;;;10.00;;
4756;SDS011;2392;52.578;13.426;2024-02-26T07:07:37;31.97;;;11.47;;
4756;SDS011;2392;52.578;13.426;2024-02-26T07:10:04;29.63;;;12.50;;
4756;SDS011;2392;52.578;13.426;2024-02-26T07:12:32;30.17;;;11.87;;
4756;SDS011;2392;52.578;13.426;2024-02-26T07:15:00;30.57;;;12.93;;
4756;SDS011;2392;52.578;13.426;2024-02-26T07:17:27;29.07;;;12.20;;
4756;SDS011;2392;52.578;13.426;2024-02-26T07:19:54;28.47;;;11.90;;
4756;SDS011;2392;52.578;13.426;2024-02-26T07:22:21;29.17;;;11.50;;
4756;SDS011;2392;52.578;13.426;2024-02-26T07:24:47;29.67;;;11.67;;
4756;SDS011;2392;52.578;13.426;2024-02-26T07:27:14;27.17;;;10.00;;
4756;SDS011;2392;52.578;13.426;2024-02-26T07:29:44;26.17;;;10.63;;
4756;SDS011;2392;52.578;13.426;2024-02-26T07:32:11;27.07;;;10.70;;
4756;SDS011;2392;52.578;13.426;2024-02-26T07:34:38;27.53;;;11.97;;
4756;SDS011;2392;52.578;13.426;2024-02-26T07:37:06;27.43;;;12.00;;
4756;SDS011;2392;52.578;13.426;2024-02-26T07:39:33;29.67;;;12.53;;
4756;SDS011;2392;52.578;13.426;2024-02-26T07:42:00;29.33;;;11.80;;
4756;SDS011;2392;52.578;13.426;2024-02-26T07:44:26;31.23;;;11.97;;
4756;SDS011;2392;52.578;13.426;2024-02-26T07:46:54;29.90;;;13.47;;
4756;SDS011;2392;52.578;13.426;2024-02-26T07:49:21;35.60;;;12.50;;
4756;SDS011;2392;52.578;13.426;2024-02-26T07:51:48;28.30;;;12.73;;
4756;SDS011;2392;52.578;13.426;2024-02-26T07:54:14;29.33;;;12.30;;
4756;SDS011;2392;52.578;13.426;2024-02-26T07:56:42;28.27;;;12.53;;
4756;SDS011;2392;52.578;13.426;2024-02-26T07:59:08;32.70;;;12.90;;
4756;SDS011;2392;52.578;13.426;2024-02-26T08:01:35;33.43;;;13.40;;
4756;SDS011;2392;52.578;13.426;2024-02-26T08:04:05;31.40;;;13.10;;
4756;SDS011;2392;52.578;13.426;2024-02-26T08:06:32;32.00;;;13.23;;
4756;SDS011;2392;52.578;13.426;2024-02-26T08:08:58;34.20;;;14.20;;
4756;SDS011;2392;52.578;13.426;2024-02-26T08:11:25;29.97;;;13.47;;
4756;SDS011;2392;52.578;13.426;2024-02-26T08:13:53;29.83;;;13.67;;
4756;SDS011;2392;52.578;13.426;2024-02-26T08:16:19;29.47;;;13.00;;
4756;SDS011;2392;52.578;13.426;2024-02-26T08:18:46;30.23;;;12.43;;
4756;SDS011;2392;52.578;13.426;2024-02-26T08:21:14;30.30;;;13.23;;
4756;SDS011;2392;52.578;13.426;2024-02-26T08:23:43;29.17;;;12.90;;
4756;SDS011;2392;52.578;13.426;2024-02-26T08:26:09;31.87;;;13.40;;
4756;SDS011;2392;52.578;13.426;2024-02-26T08:28:37;30.40;;;12.80;;
4756;SDS011;2392;52.578;13.426;2024-02-26T08:31:04;29.67;;;13.87;;
4756;SDS011;2392;52.578;13.426;2024-02-26T08:33:30;28.70;;;13.47;;
4756;SDS011;2392;52.578;13.426;2024-02-26T08:35:59;30.07;;;13.57;;
4756;SDS011;2392;52.578;13.426;2024-02-26T08:38:27;32.47;;;13.33;;
4756;SDS011;2392;52.578;13.426;2024-02-26T08:40:53;33.13;;;13.57;;
4756;SDS011;2392;52.578;13.426;2024-02-26T08:43:20;29.53;;;12.47;;
4756;SDS011;2392;52.578;13.426;2024-02-26T08:45:46;30.90;;;14.30;;
4756;SDS011;2392;52.578;13.426;2024-02-26T08:48:13;29.57;;;14.67;;
4756;SDS011;2392;52.578;13.426;2024-02-26T08:50:40;31.77;;;15.10;;
4756;SDS011;2392;52.578;13.426;2024-02-26T08:53:07;31.07;;;13.70;;
4756;SDS011;2392;52.578;13.426;2024-02-26T08:55:35;34.73;;;15.40;;
4756;SDS011;2392;52.578;13.426;2024-02-26T08:58:01;29.30;;;14.27;;
4756;SDS011;2392;52.578;13.426;2024-02-26T09:00:28;35.50;;;15.50;;
4756;SDS011;2392;52.578;13.426;2024-02-26T09:02:56;32.60;;;15.43;;
4756;SDS011;2392;52.578;13.426;2024-02-26T09:05:22;33.37;;;15.80;;
4756;SDS011;2392;52.578;13.426;2024-02-26T09:07:49;34.20;;;14.93;;
4756;SDS011;2392;52.578;13.426;2024-02-26T09:10:17;31.60;;;14.80;;
4756;SDS011;2392;52.578;13.426;2024-02-26T09:12:45;38.83;;;15.83;;
4756;SDS011;2392;52.578;13.426;2024-02-26T09:15:11;33.97;;;15.27;;
4756;SDS011;2392;52.578;13.426;2024-02-26T09:17:38;32.33;;;14.90;;
4756;SDS011;2392;52.578;13.426;2024-02-26T09:20:05;35.23;;;15.20;;
4756;SDS011;2392;52.578;13.426;2024-02-26T09:22:34;32.80;;;16.40;;
4756;SDS011;2392;52.578;13.426;2024-02-26T09:25:03;35.93;;;15.70;;
4756;SDS011;2392;52.578;13.426;2024-02-26T09:27:30;40.37;;;15.60;;
4756;SDS011;2392;52.578;13.426;2024-02-26T09:29:58;35.63;;;15.63;;
4756;SDS011;2392;52.578;13.426;2024-02-26T09:32:24;32.60;;;15.50;;
4756;SDS011;2392;52.578;13.426;2024-02-26T09:34:51;34.97;;;15.23;;
4756;SDS011;2392;52.578;13.426;2024-02-26T09:37:18;32.70;;;14.93;;
4756;SDS011;2392;52.578;13.426;2024-02-26T09:39:44;35.17;;;15.43;;
4756;SDS011;2392;52.578;13.426;2024-02-26T09:42:11;32.03;;;15.70;;
4756;SDS011;2392;52.578;13.426;2024-02-26T09:44:40;33.53;;;15.33;;
4756;SDS011;2392;52.578;13.426;2024-02-26T09:47:09;33.60;;;15.90;;
4756;SDS011;2392;52.578;13.426;2024-02-26T09:49:38;33.90;;;16.20;;
4756;SDS011;2392;52.578;13.426;2024-02-26T09:52:05;35.80;;;16.07;;
4756;SDS011;2392;52.578;13.426;2024-02-26T09:54:34;31.63;;;15.40;;
4756;SDS011;2392;52.578;13.426;2024-02-26T09:57:02;34.70;;;15.03;;
4756;SDS011;2392;52.578;13.426;2024-02-26T09:59:29;34.13;;;14.93;;
4756;SDS011;2392;52.578;13.426;2024-02-26T10:02:02;35.60;;;16.53;;
4756;SDS011;2392;52.578;13.426;2024-02-26T10:04:31;32.37;;;15.17;;
4756;SDS011;2392;52.578;13.426;2024-02-26T10:06:57;34.10;;;15.50;;
4756;SDS011;2392;52.578;13.426;2024-02-26T10:09:27;35.70;;;16.40;;
4756;SDS011;2392;52.578;13.426;2024-02-26T10:11:55;30.40;;;13.33;;
4756;SDS011;2392;52.578;13.426;2024-02-26T10:14:21;32.73;;;15.00;;
4756;SDS011;2392;52.578;13.426;2024-02-26T10:16:49;29.80;;;13.63;;
4756;SDS011;2392;52.578;13.426;2024-02-26T10:19:24;31.60;;;14.97;;
4756;SDS011;2392;52.578;13.426;2024-02-26T10:21:55;30.17;;;13.50;;
4756;SDS011;2392;52.578;13.426;2024-02-26T10:24:23;32.70;;;14.67;;
4756;SDS011;2392;52.578;13.426;2024-02-26T10:26:50;30.87;;;14.80;;
4756;SDS011;2392;52.578;13.426;2024-02-26T10:29:17;34.67;;;14.10;;
4756;SDS011;2392;52.578;13.426;2024-02-26T10:31:44;30.43;;;14.10;;
4756;SDS011;2392;52.578;13.426;2024-02-26T10:34:11;35.27;;;15.00;;
4756;SDS011;2392;52.578;13.426;2024-02-26T10:36:38;32.17;;;13.97;;
4756;SDS011;2392;52.578;13.426;2024-02-26T10:39:08;29.87;;;13.13;;
4756;SDS011;2392;52.578;13.426;2024-02-26T10:41:34;28.20;;;12.50;;
4756;SDS011;2392;52.578;13.426;2024-02-26T10:44:02;29.23;;;11.90;;
4756;SDS011;2392;52.578;13.426;2024-02-26T10:46:28;31.37;;;12.30;;
4756;SDS011;2392;52.578;13.426;2024-02-26T10:48:55;28.97;;;12.43;;
4756;SDS011;2392;52.578;13.426;2024-02-26T10:51:25;28.50;;;12.20;;
4756;SDS011;2392;52.578;13.426;2024-02-26T10:53:54;29.70;;;13.37;;
4756;SDS011;2392;52.578;13.426;2024-02-26T10:56:25;28.63;;;11.90;;
4756;SDS011;2392;52.578;13.426;2024-02-26T10:58:54;28.83;;;13.10;;
4756;SDS011;2392;52.578;13.426;2024-02-26T11:01:22;28.10;;;12.43;;
4756;SDS011;2392;52.578;13.426;2024-02-26T11:03:51;28.53;;;11.70;;
4756;SDS011;2392;52.578;13.426;2024-02-26T11:06:20;27.83;;;12.57;;
4756;SDS011;2392;52.578;13.426;2024-02-26T11:08:48;28.80;;;12.50;;
4756;SDS011;2392;52.578;13.426;2024-02-26T11:11:15;28.53;;;12.60;;
4756;SDS011;2392;52.578;13.426;2024-02-26T11:13:45;30.00;;;12.90;;
4756;SDS011;2392;52.578;13.426;2024-02-26T11:16:15;28.87;;;12.67;;
4756;SDS011;2392;52.578;13.426;2024-02-26T11:18:44;29.40;;;13.33;;
4756;SDS011;2392;52.578;13.426;2024-02-26T11:21:15;28.80;;;13.30;;
4756;SDS011;2392;52.578;13.426;2024-02-26T11:23:43;27.90;;;11.80;;
4756;SDS011;2392;52.578;13.426;2024-02-26T11:26:11;27.57;;;12.63;;
4756;SDS011;2392;52.578;13.426;2024-02-26T11:28:40;30.10;;;12.80;;
4756;SDS011;2392;52.578;13.426;2024-02-26T11:31:09;26.03;;;11.97;;
4756;SDS011;2392;52.578;13.426;2024-02-26T11:33:37;27.70;;;12.13;;
4756;SDS011;2392;52.578;13.426;2024-02-26T11:36:07;29.50;;;13.53;;
4756;SDS011;2392;52.578;13.426;2024-02-26T11:38:34;32.97;;;13.97;;
4756;SDS011;2392;52.578;13.426;2024-02-26T11:41:02;28.97;;;12.40;;
4756;SDS011;2392;52.578;13.426;2024-02-26T11:46:28;36.50;;;13.33;;
4756;SDS011;2392;52.578;13.426;2024-02-26T11:48:57;31.17;;;13.13;;
4756;SDS011;2392;52.578;13.426;2024-02-26T11:51:25;29.63;;;13.63;;
4756;SDS011;2392;52.578;13.426;2024-02-26T11:53:53;28.90;;;13.30;;
4756;SDS011;2392;52.578;13.426;2024-02-26T11:56:22;30.87;;;14.57;;
4756;SDS011;2392;52.578;13.426;2024-02-26T11:58:57;29.87;;;13.23;;
4756;SDS011;2392;52.578;13.426;2024-02-26T12:01:41;31.10;;;14.57;;
4756;SDS011;2392;52.578;13.426;2024-02-26T12:04:12;29.63;;;12.10;;
4756;SDS011;2392;52.578;13.426;2024-02-26T12:06:42;30.00;;;13.17;;
4756;SDS011;2392;52.578;13.426;2024-02-26T12:09:12;30.23;;;13.10;;
4756;SDS011;2392;52.578;13.426;2024-02-26T12:11:56;29.23;;;12.03;;
4756;SDS011;2392;52.578;13.426;2024-02-26T12:14:24;26.83;;;11.60;;
4756;SDS011;2392;52.578;13.426;2024-02-26T12:16:53;26.77;;;11.70;;
4756;SDS011;2392;52.578;13.426;2024-02-26T12:19:23;33.63;;;12.10;;
4756;SDS011;2392;52.578;13.426;2024-02-26T12:21:51;29.07;;;12.10;;
4756;SDS011;2392;52.578;13.426;2024-02-26T12:24:21;29.30;;;11.47;;
4756;SDS011;2392;52.578;13.426;2024-02-26T12:26:48;26.10;;;10.73;;
4756;SDS011;2392;52.578;13.426;2024-02-26T12:29:14;26.20;;;10.30;;
4756;SDS011;2392;52.578;13.426;2024-02-26T12:31:41;27.40;;;11.00;;
4756;SDS011;2392;52.578;13.426;2024-02-26T12:34:10;25.67;;;10.00;;
4756;SDS011;2392;52.578;13.426;2024-02-26T12:36:38;25.87;;;9.90;;
4756;SDS011;2392;52.578;13.426;2024-02-26T12:39:05;35.73;;;9.87;;
4756;SDS011;2392;52.578;13.426;2024-02-26T12:41:34;26.07;;;9.87;;
4756;SDS011;2392;52.578;13.426;2024-02-26T12:44:01;29.63;;;10.10;;
4756;SDS011;2392;52.578;13.426;2024-02-26T12:46:28;25.33;;;9.50;;
4756;SDS011;2392;52.578;13.426;2024-02-26T12:48:55;24.73;;;9.90;;
4756;SDS011;2392;52.578;13.426;2024-02-26T12:51:25;23.83;;;9.20;;
4756;SDS011;2392;52.578;13.426;2024-02-26T12:53:53;24.30;;;8.87;;
4756;SDS011;2392;52.578;13.426;2024-02-26T12:56:21;23.40;;;8.87;;
4756;SDS011;2392;52.578;13.426;2024-02-26T12:58:48;26.67;;;9.20;;
4756;SDS011;2392;52.578;13.426;2024-02-26T13:01:18;26.13;;;8.97;;
4756;SDS011;2392;52.578;13.426;2024-02-26T13:03:48;24.77;;;9.17;;
4756;SDS011;2392;52.578;13.426;2024-02-26T13:06:15;28.33;;;8.70;;
4756;SDS011;2392;52.578;13.426;2024-02-26T13:08:44;23.17;;;7.70;;
4756;SDS011;2392;52.578;13.426;2024-02-26T13:11:11;22.90;;;7.33;;
4756;SDS011;2392;52.578;13.426;2024-02-26T13:13:39;21.90;;;7.33;;
4756;SDS011;2392;52.578;13.426;2024-02-26T13:16:07;23.70;;;7.53;;
4756;SDS011;2392;52.578;13.426;2024-02-26T13:18:40;21.80;;;7.50;;
4756;SDS011;2392;52.578;13.426;2024-02-26T13:21:08;24.20;;;7.70;;
4756;SDS011;2392;52.578;13.426;2024-02-26T13:23:36;27.70;;;7.10;;
4756;SDS011;2392;52.578;13.426;2024-02-26T13:26:04;22.13;;;6.40;;
4756;SDS011;2392;52.578;13.426;2024-02-26T13:28:32;22.60;;;6.83;;
4756;SDS011;2392;52.578;13.426;2024-02-26T13:30:58;22.40;;;6.90;;
4756;SDS011;2392;52.578;13.426;2024-02-26T13:33:27;31.00;;;7.23;;
4756;SDS011;2392;52.578;13.426;2024-02-26T13:35:55;22.10;;;7.23;;
4756;SDS011;2392;52.578;13.426;2024-02-26T13:38:22;22.53;;;7.50;;
4756;SDS011;2392;52.578;13.426;2024-02-26T13:40:49;23.70;;;7.40;;
4756;SDS011;2392;52.578;13.426;2024-02-26T13:43:17;22.13;;;6.73;;
4756;SDS011;2392;52.578;13.426;2024-02-26T13:45:44;21.80;;;6.80;;
4756;SDS011;2392;52.578;13.426;2024-02-26T13:48:11;26.63;;;7.17;;
4756;SDS011;2392;52.578;13.426;2024-02-26T13:50:39;21.50;;;6.50;;
4756;SDS011;2392;52.578;13.426;2024-02-26T13:53:06;23.10;;;7.10;;
4756;SDS011;2392;52.578;13.426;2024-02-26T13:55:33;26.67;;;6.90;;
4756;SDS011;2392;52.578;13.426;2024-02-26T13:57:59;21.90;;;6.40;;
4756;SDS011;2392;52.578;13.426;2024-02-26T14:00:28;22.83;;;7.50;;
4756;SDS011;2392;52.578;13.426;2024-02-26T14:02:57;24.30;;;7.83;;
4756;SDS011;2392;52.578;13.426;2024-02-26T14:05:24;24.03;;;7.10;;
4756;SDS011;2392;52.578;13.426;2024-02-26T14:07:50;26.63;;;7.90;;
4756;SDS011;2392;52.578;13.426;2024-02-26T14:10:18;23.63;;;7.50;;
4756;SDS011;2392;52.578;13.426;2024-02-26T14:12:44;24.20;;;7.60;;
4756;SDS011;2392;52.578;13.426;2024-02-26T14:15:11;22.07;;;7.57;;
4756;SDS011;2392;52.578;13.426;2024-02-26T14:17:39;22.97;;;7.70;;
4756;SDS011;2392;52.578;13.426;2024-02-26T14:20:06;23.63;;;7.00;;
4756;SDS011;2392;52.578;13.426;2024-02-26T14:22:34;21.77;;;7.90;;
4756;SDS011;2392;52.578;13.426;2024-02-26T14:25:02;23.30;;;8.10;;
4756;SDS011;2392;52.578;13.426;2024-02-26T14:27:29;25.10;;;8.47;;
4756;SDS011;2392;52.578;13.426;2024-02-26T14:29:56;23.53;;;8.70;;
4756;SDS011;2392;52.578;13.426;2024-02-26T14:32:22;24.80;;;8.50;;
4756;SDS011;2392;52.578;13.426;2024-02-26T14:34:50;24.03;;;8.47;;
4756;SDS011;2392;52.578;13.426;2024-02-26T14:37:17;22.93;;;8.27;;
4756;SDS011;2392;52.578;13.426;2024-02-26T14:39:44;22.27;;;7.93;;
4756;SDS011;2392;52.578;13.426;2024-02-26T14:42:12;24.10;;;8.20;;